sensor_id;sensor_type;location;lat;lon;timestamp;pressure;altitude;pressure_sealevel;temperature;humidity
73073;BME280;61260;51.090;-1.786;2022-10-16T00:01:59;99933.65;;;11.11;83.76
73073;BME280;61260;51.090;-1.786;2022-10-16T00:04:28;99941.16;;;11.12;83.33
73073;BME280;61260;51.090;-1.786;2022-10-16T00:06:58;99941.84;;;11.15;83.08
73073;BME280;61260;51.090;-1.786;2022-10-16T00:09:28;99952.14;;;11.19;82.85
73073;BME280;61260;51.090;-1.786;2022-10-16T00:11:57;99962.90;;;11.27;82.83
73073;BME280;61260;51.090;-1.786;2022-10-16T00:14:27;99966.67;;;11.32;82.65
73073;BME280;61260;51.090;-1.786;2022-10-16T00:16:57;99969.97;;;11.38;82.71
73073;BME280;61260;51.090;-1.786;2022-10-16T00:19:26;99972.29;;;11.41;83.05
73073;BME280;61260;51.090;-1.786;2022-10-16T00:21:56;99971.54;;;11.43;82.82
73073;BME280;61260;51.090;-1.786;2022-10-16T00:24:26;99971.75;;;11.41;82.84
73073;BME280;61260;51.090;-1.786;2022-10-16T00:26:56;99971.33;;;11.39;83.02
73073;BME280;61260;51.090;-1.786;2022-10-16T00:29:26;99971.49;;;11.36;82.67
73073;BME280;61260;51.090;-1.786;2022-10-16T00:31:55;99967.85;;;11.32;82.65
73073;BME280;61260;51.090;-1.786;2022-10-16T00:34:25;99974.05;;;11.30;82.83
73073;BME280;61260;51.090;-1.786;2022-10-16T00:36:55;99968.95;;;11.25;82.83
73073;BME280;61260;51.090;-1.786;2022-10-16T00:39:25;99971.13;;;11.20;83.39
73073;BME280;61260;51.090;-1.786;2022-10-16T00:41:54;99971.05;;;11.16;83.23
73073;BME280;61260;51.090;-1.786;2022-10-16T00:44:46;99965.05;;;11.12;83.44
73073;BME280;61260;51.090;-1.786;2022-10-16T00:47:15;99977.20;;;11.10;83.80
73073;BME280;61260;51.090;-1.786;2022-10-16T00:49:45;99974.55;;;11.08;83.91
73073;BME280;61260;51.090;-1.786;2022-10-16T00:52:16;99975.69;;;11.05;83.94
73073;BME280;61260;51.090;-1.786;2022-10-16T00:54:47;99975.45;;;11.01;83.91
73073;BME280;61260;51.090;-1.786;2022-10-16T00:57:18;99981.92;;;10.97;84.24
73073;BME280;61260;51.090;-1.786;2022-10-16T00:59:48;99983.59;;;10.94;84.08
73073;BME280;61260;51.090;-1.786;2022-10-16T01:02:18;99984.02;;;10.92;84.20
73073;BME280;61260;51.090;-1.786;2022-10-16T01:04:50;99981.85;;;10.90;84.19
73073;BME280;61260;51.090;-1.786;2022-10-16T01:07:30;99980.66;;;10.89;83.82
73073;BME280;61260;51.090;-1.786;2022-10-16T01:10:10;99985.20;;;10.86;83.68
73073;BME280;61260;51.090;-1.786;2022-10-16T01:12:47;99988.52;;;10.84;83.12
73073;BME280;61260;51.090;-1.786;2022-10-16T01:15:27;99988.03;;;10.83;82.92
73073;BME280;61260;51.090;-1.786;2022-10-16T01:18:03;99988.52;;;10.80;82.52
73073;BME280;61260;51.090;-1.786;2022-10-16T01:20:37;99990.52;;;10.78;82.33
73073;BME280;61260;51.090;-1.786;2022-10-16T01:23:19;99991.09;;;10.76;82.29
73073;BME280;61260;51.090;-1.786;2022-10-16T01:26:19;99983.38;;;10.73;82.40
73073;BME280;61260;51.090;-1.786;2022-10-16T01:28:54;99986.67;;;10.70;82.58
73073;BME280;61260;51.090;-1.786;2022-10-16T01:31:27;99993.99;;;10.66;82.83
73073;BME280;61260;51.090;-1.786;2022-10-16T01:34:02;99993.67;;;10.62;82.95
73073;BME280;61260;51.090;-1.786;2022-10-16T01:36:37;100003.98;;;10.56;83.32
73073;BME280;61260;51.090;-1.786;2022-10-16T01:39:11;100007.61;;;10.50;83.55
73073;BME280;61260;51.090;-1.786;2022-10-16T01:41:46;100009.30;;;10.45;83.64
73073;BME280;61260;51.090;-1.786;2022-10-16T01:44:22;100008.73;;;10.40;84.18
73073;BME280;61260;51.090;-1.786;2022-10-16T01:46:55;100015.65;;;10.37;84.29
73073;BME280;61260;51.090;-1.786;2022-10-16T01:49:28;100017.10;;;10.35;84.67
73073;BME280;61260;51.090;-1.786;2022-10-16T01:52:02;100022.37;;;10.34;85.03
73073;BME280;61260;51.090;-1.786;2022-10-16T01:54:36;100025.02;;;10.34;85.07
73073;BME280;61260;51.090;-1.786;2022-10-16T01:57:07;100024.07;;;10.33;85.37
73073;BME280;61260;51.090;-1.786;2022-10-16T01:59:43;100025.39;;;10.33;85.58
73073;BME280;61260;51.090;-1.786;2022-10-16T02:02:14;100030.39;;;10.33;85.63
73073;BME280;61260;51.090;-1.786;2022-10-16T02:04:48;100031.54;;;10.36;85.52
73073;BME280;61260;51.090;-1.786;2022-10-16T02:07:19;100032.95;;;10.36;85.73
73073;BME280;61260;51.090;-1.786;2022-10-16T02:09:48;100038.92;;;10.34;85.98
73073;BME280;61260;51.090;-1.786;2022-10-16T02:12:22;100043.05;;;10.34;85.80
73073;BME280;61260;51.090;-1.786;2022-10-16T02:14:53;100041.88;;;10.30;85.75
73073;BME280;61260;51.090;-1.786;2022-10-16T02:17:23;100047.78;;;10.26;85.68
73073;BME280;61260;51.090;-1.786;2022-10-16T02:19:54;100049.62;;;10.21;86.07
73073;BME280;61260;51.090;-1.786;2022-10-16T02:22:30;100048.31;;;10.16;86.00
73073;BME280;61260;51.090;-1.786;2022-10-16T02:25:05;100050.31;;;10.12;86.38
73073;BME280;61260;51.090;-1.786;2022-10-16T02:27:40;100052.51;;;10.09;86.40
73073;BME280;61260;51.090;-1.786;2022-10-16T02:30:16;100057.92;;;10.07;86.23
73073;BME280;61260;51.090;-1.786;2022-10-16T02:32:50;100054.53;;;10.05;86.19
73073;BME280;61260;51.090;-1.786;2022-10-16T02:35:22;100057.32;;;10.04;86.14
73073;BME280;61260;51.090;-1.786;2022-10-16T02:37:53;100058.02;;;10.02;85.93
73073;BME280;61260;51.090;-1.786;2022-10-16T02:40:24;100062.46;;;10.00;85.81
73073;BME280;61260;51.090;-1.786;2022-10-16T02:42:55;100062.55;;;9.97;85.92
73073;BME280;61260;51.090;-1.786;2022-10-16T02:45:26;100068.95;;;9.94;86.02
73073;BME280;61260;51.090;-1.786;2022-10-16T02:47:57;100071.35;;;9.91;86.07
73073;BME280;61260;51.090;-1.786;2022-10-16T02:50:27;100082.08;;;9.89;86.02
73073;BME280;61260;51.090;-1.786;2022-10-16T02:52:56;100081.96;;;9.88;86.05
73073;BME280;61260;51.090;-1.786;2022-10-16T02:55:26;100092.90;;;9.86;85.86
73073;BME280;61260;51.090;-1.786;2022-10-16T02:57:57;100094.06;;;9.81;85.67
73073;BME280;61260;51.090;-1.786;2022-10-16T03:00:26;100095.17;;;9.75;86.03
73073;BME280;61260;51.090;-1.786;2022-10-16T03:02:56;100097.52;;;9.69;85.92
73073;BME280;61260;51.090;-1.786;2022-10-16T03:05:26;100097.91;;;9.64;86.25
73073;BME280;61260;51.090;-1.786;2022-10-16T03:07:56;100097.88;;;9.60;86.31
73073;BME280;61260;51.090;-1.786;2022-10-16T03:10:28;100096.41;;;9.54;86.16
73073;BME280;61260;51.090;-1.786;2022-10-16T03:12:57;100095.55;;;9.46;85.98
73073;BME280;61260;51.090;-1.786;2022-10-16T03:15:27;100092.73;;;9.37;86.24
73073;BME280;61260;51.090;-1.786;2022-10-16T03:17:58;100098.05;;;9.28;85.82
73073;BME280;61260;51.090;-1.786;2022-10-16T03:20:28;100104.23;;;9.17;85.98
73073;BME280;61260;51.090;-1.786;2022-10-16T03:22:58;100104.89;;;9.08;86.39
73073;BME280;61260;51.090;-1.786;2022-10-16T03:25:27;100111.41;;;9.00;86.35
73073;BME280;61260;51.090;-1.786;2022-10-16T03:27:57;100110.59;;;8.93;86.83
73073;BME280;61260;51.090;-1.786;2022-10-16T03:30:27;100114.72;;;8.89;87.73
73073;BME280;61260;51.090;-1.786;2022-10-16T03:32:57;100116.45;;;8.89;87.98
73073;BME280;61260;51.090;-1.786;2022-10-16T03:35:27;100120.88;;;8.89;88.18
73073;BME280;61260;51.090;-1.786;2022-10-16T03:37:57;100124.92;;;8.87;87.71
73073;BME280;61260;51.090;-1.786;2022-10-16T03:40:27;100130.05;;;8.84;87.97
73073;BME280;61260;51.090;-1.786;2022-10-16T03:42:57;100131.46;;;8.84;87.84
73073;BME280;61260;51.090;-1.786;2022-10-16T03:45:26;100132.98;;;8.83;87.55
73073;BME280;61260;51.090;-1.786;2022-10-16T03:47:56;100136.53;;;8.82;87.64
73073;BME280;61260;51.090;-1.786;2022-10-16T03:50:26;100142.85;;;8.85;87.57
73073;BME280;61260;51.090;-1.786;2022-10-16T03:52:56;100147.81;;;8.89;87.22
73073;BME280;61260;51.090;-1.786;2022-10-16T03:55:25;100147.83;;;8.93;86.92
73073;BME280;61260;51.090;-1.786;2022-10-16T03:57:55;100153.14;;;8.96;86.39
73073;BME280;61260;51.090;-1.786;2022-10-16T04:00:25;100160.81;;;9.02;86.21
73073;BME280;61260;51.090;-1.786;2022-10-16T04:02:54;100165.27;;;9.03;85.83
73073;BME280;61260;51.090;-1.786;2022-10-16T04:05:24;100167.41;;;8.99;85.70
73073;BME280;61260;51.090;-1.786;2022-10-16T04:07:54;100171.24;;;8.93;85.56
73073;BME280;61260;51.090;-1.786;2022-10-16T04:10:24;100173.58;;;8.85;85.81
73073;BME280;61260;51.090;-1.786;2022-10-16T04:12:53;100177.16;;;8.78;85.98
73073;BME280;61260;51.090;-1.786;2022-10-16T04:15:24;100181.52;;;8.71;85.94
73073;BME280;61260;51.090;-1.786;2022-10-16T04:17:54;100183.88;;;8.62;86.02
73073;BME280;61260;51.090;-1.786;2022-10-16T04:20:23;100190.42;;;8.53;86.23
73073;BME280;61260;51.090;-1.786;2022-10-16T04:22:53;100189.06;;;8.47;86.40
73073;BME280;61260;51.090;-1.786;2022-10-16T04:25:23;100196.10;;;8.46;86.16
73073;BME280;61260;51.090;-1.786;2022-10-16T04:27:53;100198.36;;;8.37;86.21
73073;BME280;61260;51.090;-1.786;2022-10-16T04:30:24;100205.98;;;8.32;86.32
73073;BME280;61260;51.090;-1.786;2022-10-16T04:32:53;100208.39;;;8.26;86.48
73073;BME280;61260;51.090;-1.786;2022-10-16T04:35:23;100209.04;;;8.20;86.82
73073;BME280;61260;51.090;-1.786;2022-10-16T04:37:53;100213.17;;;8.14;87.19
73073;BME280;61260;51.090;-1.786;2022-10-16T04:40:23;100214.02;;;8.08;87.11
73073;BME280;61260;51.090;-1.786;2022-10-16T04:42:53;100216.47;;;8.04;87.51
73073;BME280;61260;51.090;-1.786;2022-10-16T04:45:23;100219.80;;;8.01;87.21
73073;BME280;61260;51.090;-1.786;2022-10-16T04:47:52;100220.22;;;7.98;87.78
73073;BME280;61260;51.090;-1.786;2022-10-16T04:50:22;100223.16;;;7.95;87.70
73073;BME280;61260;51.090;-1.786;2022-10-16T04:52:52;100228.77;;;7.94;87.75
73073;BME280;61260;51.090;-1.786;2022-10-16T04:55:21;100234.60;;;7.92;87.98
73073;BME280;61260;51.090;-1.786;2022-10-16T04:57:51;100232.25;;;7.89;88.03
73073;BME280;61260;51.090;-1.786;2022-10-16T05:00:21;100235.55;;;7.86;87.92
73073;BME280;61260;51.090;-1.786;2022-10-16T05:02:53;100243.85;;;7.81;87.82
73073;BME280;61260;51.090;-1.786;2022-10-16T05:05:22;100250.58;;;7.76;88.35
73073;BME280;61260;51.090;-1.786;2022-10-16T05:07:52;100253.20;;;7.72;88.02
73073;BME280;61260;51.090;-1.786;2022-10-16T05:10:22;100257.23;;;7.67;88.45
73073;BME280;61260;51.090;-1.786;2022-10-16T05:12:51;100265.05;;;7.65;88.26
73073;BME280;61260;51.090;-1.786;2022-10-16T05:15:21;100269.01;;;7.60;88.98
73073;BME280;61260;51.090;-1.786;2022-10-16T05:17:54;100276.13;;;7.57;88.89
73073;BME280;61260;51.090;-1.786;2022-10-16T05:20:24;100279.48;;;7.54;88.76
73073;BME280;61260;51.090;-1.786;2022-10-16T05:22:54;100279.20;;;7.51;88.87
73073;BME280;61260;51.090;-1.786;2022-10-16T05:25:24;100286.15;;;7.48;88.98
73073;BME280;61260;51.090;-1.786;2022-10-16T05:27:54;100288.52;;;7.47;88.93
73073;BME280;61260;51.090;-1.786;2022-10-16T05:30:23;100292.45;;;7.44;88.98
73073;BME280;61260;51.090;-1.786;2022-10-16T05:32:53;100295.55;;;7.40;88.89
73073;BME280;61260;51.090;-1.786;2022-10-16T05:35:23;100298.09;;;7.38;89.01
73073;BME280;61260;51.090;-1.786;2022-10-16T05:37:54;100299.54;;;7.35;89.14
73073;BME280;61260;51.090;-1.786;2022-10-16T05:40:23;100299.27;;;7.32;89.05
73073;BME280;61260;51.090;-1.786;2022-10-16T05:42:57;100297.45;;;7.29;89.45
73073;BME280;61260;51.090;-1.786;2022-10-16T05:45:27;100303.32;;;7.28;89.36
73073;BME280;61260;51.090;-1.786;2022-10-16T05:47:56;100306.25;;;7.26;89.20
73073;BME280;61260;51.090;-1.786;2022-10-16T05:50:26;100310.71;;;7.23;89.44
73073;BME280;61260;51.090;-1.786;2022-10-16T05:52:56;100314.55;;;7.22;89.46
73073;BME280;61260;51.090;-1.786;2022-10-16T05:55:26;100320.95;;;7.17;89.21
73073;BME280;61260;51.090;-1.786;2022-10-16T05:57:57;100322.91;;;7.14;89.50
73073;BME280;61260;51.090;-1.786;2022-10-16T06:00:26;100325.01;;;7.12;89.86
73073;BME280;61260;51.090;-1.786;2022-10-16T06:02:56;100324.67;;;7.10;90.00
73073;BME280;61260;51.090;-1.786;2022-10-16T06:05:27;100325.61;;;7.08;89.99
73073;BME280;61260;51.090;-1.786;2022-10-16T06:07:57;100323.95;;;7.07;90.00
73073;BME280;61260;51.090;-1.786;2022-10-16T06:10:26;100327.76;;;7.07;90.28
73073;BME280;61260;51.090;-1.786;2022-10-16T06:12:57;100333.91;;;7.08;90.06
73073;BME280;61260;51.090;-1.786;2022-10-16T06:15:26;100335.13;;;7.07;90.13
73073;BME280;61260;51.090;-1.786;2022-10-16T06:17:56;100338.19;;;7.07;90.26
73073;BME280;61260;51.090;-1.786;2022-10-16T06:20:26;100342.54;;;7.07;90.49
73073;BME280;61260;51.090;-1.786;2022-10-16T06:22:56;100344.11;;;7.05;90.43
73073;BME280;61260;51.090;-1.786;2022-10-16T06:25:26;100344.50;;;7.05;90.39
73073;BME280;61260;51.090;-1.786;2022-10-16T06:27:55;100346.45;;;7.05;90.24
73073;BME280;61260;51.090;-1.786;2022-10-16T06:30:25;100346.31;;;7.04;90.24
73073;BME280;61260;51.090;-1.786;2022-10-16T06:32:55;100352.77;;;7.03;90.51
73073;BME280;61260;51.090;-1.786;2022-10-16T06:35:25;100351.80;;;7.02;90.48
73073;BME280;61260;51.090;-1.786;2022-10-16T06:37:55;100358.16;;;7.04;90.60
73073;BME280;61260;51.090;-1.786;2022-10-16T06:40:25;100362.29;;;7.07;90.75
73073;BME280;61260;51.090;-1.786;2022-10-16T06:42:57;100363.77;;;7.14;91.20
73073;BME280;61260;51.090;-1.786;2022-10-16T06:45:27;100362.65;;;7.22;91.47
73073;BME280;61260;51.090;-1.786;2022-10-16T06:47:56;100368.65;;;7.32;91.61
73073;BME280;61260;51.090;-1.786;2022-10-16T06:50:26;100365.66;;;7.41;91.59
73073;BME280;61260;51.090;-1.786;2022-10-16T06:52:56;100368.57;;;7.47;91.46
73073;BME280;61260;51.090;-1.786;2022-10-16T06:55:25;100372.42;;;7.53;91.28
73073;BME280;61260;51.090;-1.786;2022-10-16T06:57:55;100381.45;;;7.59;91.38
73073;BME280;61260;51.090;-1.786;2022-10-16T07:00:24;100390.21;;;7.68;91.73
73073;BME280;61260;51.090;-1.786;2022-10-16T07:02:54;100394.59;;;7.81;91.90
73073;BME280;61260;51.090;-1.786;2022-10-16T07:05:24;100397.55;;;7.91;91.56
73073;BME280;61260;51.090;-1.786;2022-10-16T07:07:54;100404.33;;;8.01;91.22
73073;BME280;61260;51.090;-1.786;2022-10-16T07:10:24;100405.98;;;8.12;91.58
73073;BME280;61260;51.090;-1.786;2022-10-16T07:12:53;100409.50;;;8.22;91.32
73073;BME280;61260;51.090;-1.786;2022-10-16T07:15:23;100414.77;;;8.38;90.91
73073;BME280;61260;51.090;-1.786;2022-10-16T07:17:54;100418.82;;;8.66;90.83
73073;BME280;61260;51.090;-1.786;2022-10-16T07:20:23;100418.15;;;8.97;90.37
73073;BME280;61260;51.090;-1.786;2022-10-16T07:22:53;100416.68;;;9.24;89.74
73073;BME280;61260;51.090;-1.786;2022-10-16T07:25:23;100417.68;;;9.40;88.92
73073;BME280;61260;51.090;-1.786;2022-10-16T07:27:52;100416.32;;;9.53;88.53
73073;BME280;61260;51.090;-1.786;2022-10-16T07:30:24;100421.95;;;9.76;88.09
73073;BME280;61260;51.090;-1.786;2022-10-16T07:32:53;100423.77;;;10.26;87.87
73073;BME280;61260;51.090;-1.786;2022-10-16T07:35:23;100431.27;;;10.95;86.63
73073;BME280;61260;51.090;-1.786;2022-10-16T07:37:53;100436.59;;;11.96;84.50
73073;BME280;61260;51.090;-1.786;2022-10-16T07:40:23;100433.46;;;12.89;82.20
73073;BME280;61260;51.090;-1.786;2022-10-16T07:42:55;100424.36;;;14.01;80.42
73073;BME280;61260;51.090;-1.786;2022-10-16T07:45:25;100426.89;;;15.12;77.87
73073;BME280;61260;51.090;-1.786;2022-10-16T07:47:55;100425.94;;;16.14;75.27
73073;BME280;61260;51.090;-1.786;2022-10-16T07:50:24;100425.36;;;17.08;71.65
73073;BME280;61260;51.090;-1.786;2022-10-16T07:52:54;100425.37;;;17.81;69.56
73073;BME280;61260;51.090;-1.786;2022-10-16T07:55:24;100426.67;;;18.57;66.40
73073;BME280;61260;51.090;-1.786;2022-10-16T07:57:54;100422.67;;;19.18;64.11
73073;BME280;61260;51.090;-1.786;2022-10-16T08:00:24;100419.95;;;19.86;62.66
73073;BME280;61260;51.090;-1.786;2022-10-16T08:02:53;100422.49;;;20.41;59.95
73073;BME280;61260;51.090;-1.786;2022-10-16T08:05:24;100429.17;;;20.86;58.12
73073;BME280;61260;51.090;-1.786;2022-10-16T08:07:54;100430.75;;;21.22;54.44
73073;BME280;61260;51.090;-1.786;2022-10-16T08:10:26;100431.39;;;21.28;52.71
73073;BME280;61260;51.090;-1.786;2022-10-16T08:12:56;100437.14;;;21.25;52.93
73073;BME280;61260;51.090;-1.786;2022-10-16T08:15:26;100438.11;;;21.56;52.22
73073;BME280;61260;51.090;-1.786;2022-10-16T08:18:00;100443.05;;;21.94;53.49
73073;BME280;61260;51.090;-1.786;2022-10-16T08:20:31;100444.06;;;22.69;52.45
73073;BME280;61260;51.090;-1.786;2022-10-16T08:23:02;100447.63;;;23.50;51.26
73073;BME280;61260;51.090;-1.786;2022-10-16T08:25:33;100455.30;;;24.17;49.76
73073;BME280;61260;51.090;-1.786;2022-10-16T08:28:04;100455.35;;;24.65;46.98
73073;BME280;61260;51.090;-1.786;2022-10-16T08:30:34;100456.83;;;24.70;45.57
73073;BME280;61260;51.090;-1.786;2022-10-16T08:33:04;100457.44;;;24.53;43.22
73073;BME280;61260;51.090;-1.786;2022-10-16T08:35:34;100460.35;;;24.04;43.26
73073;BME280;61260;51.090;-1.786;2022-10-16T08:38:05;100457.98;;;23.90;44.30
73073;BME280;61260;51.090;-1.786;2022-10-16T08:40:37;100461.86;;;23.95;44.91
73073;BME280;61260;51.090;-1.786;2022-10-16T08:43:31;100463.58;;;24.51;45.01
73073;BME280;61260;51.090;-1.786;2022-10-16T08:46:19;100460.84;;;24.88;43.35
73073;BME280;61260;51.090;-1.786;2022-10-16T08:48:52;100464.89;;;24.76;42.30
73073;BME280;61260;51.090;-1.786;2022-10-16T08:51:25;100462.06;;;24.36;41.87
73073;BME280;61260;51.090;-1.786;2022-10-16T08:53:57;100462.05;;;24.18;42.00
73073;BME280;61260;51.090;-1.786;2022-10-16T08:56:28;100469.70;;;24.30;41.92
73073;BME280;61260;51.090;-1.786;2022-10-16T08:58:59;100475.36;;;24.69;41.40
73073;BME280;61260;51.090;-1.786;2022-10-16T09:01:36;100478.41;;;24.85;41.39
73073;BME280;61260;51.090;-1.786;2022-10-16T09:07:16;100483.09;;;25.60;40.96
73073;BME280;61260;51.090;-1.786;2022-10-16T09:09:56;100481.20;;;26.41;41.53
73073;BME280;61260;51.090;-1.786;2022-10-16T09:12:36;100482.55;;;27.12;40.70
73073;BME280;61260;51.090;-1.786;2022-10-16T09:15:20;100483.77;;;27.67;39.65
73073;BME280;61260;51.090;-1.786;2022-10-16T09:17:56;100481.27;;;28.25;38.45
73073;BME280;61260;51.090;-1.786;2022-10-16T09:20:50;100480.38;;;28.33;34.97
73073;BME280;61260;51.090;-1.786;2022-10-16T09:23:25;100481.90;;;27.93;34.49
73073;BME280;61260;51.090;-1.786;2022-10-16T09:25:56;100481.76;;;28.00;37.13
73073;BME280;61260;51.090;-1.786;2022-10-16T09:28:27;100481.56;;;28.55;35.57
73073;BME280;61260;51.090;-1.786;2022-10-16T09:30:57;100480.54;;;28.51;33.41
73073;BME280;61260;51.090;-1.786;2022-10-16T09:33:33;100479.40;;;28.55;34.85
73073;BME280;61260;51.090;-1.786;2022-10-16T09:36:05;100477.43;;;28.88;34.55
73073;BME280;61260;51.090;-1.786;2022-10-16T09:38:36;100480.02;;;28.90;34.86
73073;BME280;61260;51.090;-1.786;2022-10-16T09:41:18;100480.28;;;29.38;35.37
73073;BME280;61260;51.090;-1.786;2022-10-16T09:43:55;100477.88;;;29.99;33.58
73073;BME280;61260;51.090;-1.786;2022-10-16T09:46:29;100485.48;;;30.17;33.50
73073;BME280;61260;51.090;-1.786;2022-10-16T09:49:01;100488.75;;;30.21;32.85
73073;BME280;61260;51.090;-1.786;2022-10-16T09:51:33;100490.15;;;30.42;31.36
73073;BME280;61260;51.090;-1.786;2022-10-16T09:54:14;100488.52;;;30.16;31.49
73073;BME280;61260;51.090;-1.786;2022-10-16T09:56:44;100495.71;;;29.54;30.30
73073;BME280;61260;51.090;-1.786;2022-10-16T09:59:20;100494.12;;;28.39;31.56
73073;BME280;61260;51.090;-1.786;2022-10-16T10:01:53;100488.23;;;27.76;33.11
73073;BME280;61260;51.090;-1.786;2022-10-16T10:04:23;100481.39;;;27.34;32.76
73073;BME280;61260;51.090;-1.786;2022-10-16T10:06:55;100475.86;;;27.11;34.10
73073;BME280;61260;51.090;-1.786;2022-10-16T10:09:27;100474.78;;;27.27;34.24
73073;BME280;61260;51.090;-1.786;2022-10-16T10:11:59;100477.35;;;27.45;33.60
73073;BME280;61260;51.090;-1.786;2022-10-16T10:14:36;100472.79;;;27.63;34.02
73073;BME280;61260;51.090;-1.786;2022-10-16T10:17:14;100475.14;;;28.11;33.97
73073;BME280;61260;51.090;-1.786;2022-10-16T10:19:48;100480.38;;;28.58;33.60
73073;BME280;61260;51.090;-1.786;2022-10-16T10:22:39;100481.77;;;28.65;32.62
73073;BME280;61260;51.090;-1.786;2022-10-16T10:25:26;100490.23;;;28.41;31.90
73073;BME280;61260;51.090;-1.786;2022-10-16T10:28:21;100491.84;;;28.01;32.26
73073;BME280;61260;51.090;-1.786;2022-10-16T10:30:59;100486.36;;;27.77;33.15
73073;BME280;61260;51.090;-1.786;2022-10-16T10:33:37;100494.52;;;27.29;33.61
73073;BME280;61260;51.090;-1.786;2022-10-16T10:36:16;100494.57;;;26.75;33.75
73073;BME280;61260;51.090;-1.786;2022-10-16T10:38:52;100496.52;;;26.21;35.36
73073;BME280;61260;51.090;-1.786;2022-10-16T10:41:39;100495.11;;;25.80;35.91
73073;BME280;61260;51.090;-1.786;2022-10-16T10:44:27;100487.67;;;25.80;36.15
73073;BME280;61260;51.090;-1.786;2022-10-16T10:47:11;100493.90;;;25.92;37.50
73073;BME280;61260;51.090;-1.786;2022-10-16T10:49:55;100497.79;;;26.22;36.68
73073;BME280;61260;51.090;-1.786;2022-10-16T10:52:37;100491.19;;;26.32;36.17
73073;BME280;61260;51.090;-1.786;2022-10-16T10:55:19;100488.06;;;26.49;36.05
73073;BME280;61260;51.090;-1.786;2022-10-16T10:58:18;100489.67;;;26.65;34.92
73073;BME280;61260;51.090;-1.786;2022-10-16T11:00:57;100492.20;;;26.77;35.21
73073;BME280;61260;51.090;-1.786;2022-10-16T11:03:42;100491.15;;;26.70;34.90
73073;BME280;61260;51.090;-1.786;2022-10-16T11:06:19;100494.10;;;26.36;35.41
73073;BME280;61260;51.090;-1.786;2022-10-16T11:08:55;100496.14;;;25.87;35.74
73073;BME280;61260;51.090;-1.786;2022-10-16T11:11:34;100500.28;;;25.68;35.90
73073;BME280;61260;51.090;-1.786;2022-10-16T11:14:09;100494.02;;;25.69;36.45
73073;BME280;61260;51.090;-1.786;2022-10-16T11:16:45;100487.33;;;25.91;35.80
73073;BME280;61260;51.090;-1.786;2022-10-16T11:19:25;100489.38;;;26.16;35.34
73073;BME280;61260;51.090;-1.786;2022-10-16T11:22:03;100490.60;;;26.47;34.88
73073;BME280;61260;51.090;-1.786;2022-10-16T11:24:42;100491.49;;;26.59;34.57
73073;BME280;61260;51.090;-1.786;2022-10-16T11:27:19;100494.31;;;26.49;35.24
73073;BME280;61260;51.090;-1.786;2022-10-16T11:29:55;100493.45;;;26.25;34.51
73073;BME280;61260;51.090;-1.786;2022-10-16T11:32:30;100490.20;;;25.99;35.59
73073;BME280;61260;51.090;-1.786;2022-10-16T11:35:08;100487.84;;;25.87;35.89
73073;BME280;61260;51.090;-1.786;2022-10-16T11:37:48;100494.83;;;25.22;36.56
73073;BME280;61260;51.090;-1.786;2022-10-16T11:40:25;100497.63;;;24.65;37.90
73073;BME280;61260;51.090;-1.786;2022-10-16T11:43:04;100497.35;;;24.31;38.19
73073;BME280;61260;51.090;-1.786;2022-10-16T11:45:42;100493.77;;;24.19;38.99
73073;BME280;61260;51.090;-1.786;2022-10-16T11:48:20;100492.52;;;24.51;38.69
73073;BME280;61260;51.090;-1.786;2022-10-16T11:50:54;100487.48;;;24.48;38.41
73073;BME280;61260;51.090;-1.786;2022-10-16T11:53:34;100484.86;;;24.50;38.16
73073;BME280;61260;51.090;-1.786;2022-10-16T11:56:08;100485.40;;;24.67;37.31
73073;BME280;61260;51.090;-1.786;2022-10-16T11:58:44;100482.34;;;24.65;37.72
73073;BME280;61260;51.090;-1.786;2022-10-16T12:01:25;100478.83;;;24.90;37.78
73073;BME280;61260;51.090;-1.786;2022-10-16T12:04:06;100476.90;;;24.82;37.52
73073;BME280;61260;51.090;-1.786;2022-10-16T12:06:46;100476.27;;;24.65;38.01
73073;BME280;61260;51.090;-1.786;2022-10-16T12:09:21;100473.04;;;24.19;38.40
73073;BME280;61260;51.090;-1.786;2022-10-16T12:11:52;100469.08;;;23.73;39.46
73073;BME280;61260;51.090;-1.786;2022-10-16T12:14:38;100472.89;;;23.18;40.84
73073;BME280;61260;51.090;-1.786;2022-10-16T12:17:25;100467.33;;;23.32;41.16
73073;BME280;61260;51.090;-1.786;2022-10-16T12:20:18;100466.85;;;23.09;40.92
73073;BME280;61260;51.090;-1.786;2022-10-16T12:22:51;100465.45;;;22.53;41.36
73073;BME280;61260;51.090;-1.786;2022-10-16T12:25:26;100471.50;;;21.58;42.77
73073;BME280;61260;51.090;-1.786;2022-10-16T12:28:02;100470.75;;;21.06;44.54
73073;BME280;61260;51.090;-1.786;2022-10-16T12:30:34;100475.34;;;21.00;45.25
73073;BME280;61260;51.090;-1.786;2022-10-16T12:33:15;100478.89;;;21.13;45.25
73073;BME280;61260;51.090;-1.786;2022-10-16T12:35:48;100475.77;;;21.43;45.37
73073;BME280;61260;51.090;-1.786;2022-10-16T12:38:21;100476.30;;;21.73;45.12
73073;BME280;61260;51.090;-1.786;2022-10-16T12:40:59;100468.19;;;21.98;44.19
73073;BME280;61260;51.090;-1.786;2022-10-16T12:43:44;100458.03;;;22.42;43.31
73073;BME280;61260;51.090;-1.786;2022-10-16T12:46:23;100461.77;;;22.01;43.16
73073;BME280;61260;51.090;-1.786;2022-10-16T12:49:04;100460.59;;;21.45;44.14
73073;BME280;61260;51.090;-1.786;2022-10-16T12:51:37;100455.02;;;20.88;45.18
73073;BME280;61260;51.090;-1.786;2022-10-16T12:54:14;100454.30;;;20.47;46.66
73073;BME280;61260;51.090;-1.786;2022-10-16T12:56:56;100452.73;;;20.06;47.25
73073;BME280;61260;51.090;-1.786;2022-10-16T12:59:40;100450.97;;;19.69;48.63
73073;BME280;61260;51.090;-1.786;2022-10-16T13:02:35;100448.95;;;19.43;49.02
73073;BME280;61260;51.090;-1.786;2022-10-16T13:05:34;100449.67;;;19.12;50.19
73073;BME280;61260;51.090;-1.786;2022-10-16T13:08:22;100447.83;;;19.02;50.01
73073;BME280;61260;51.090;-1.786;2022-10-16T13:11:01;100441.17;;;18.89;51.18
73073;BME280;61260;51.090;-1.786;2022-10-16T13:13:46;100436.71;;;18.77;51.67
73073;BME280;61260;51.090;-1.786;2022-10-16T13:16:25;100433.58;;;18.71;52.06
73073;BME280;61260;51.090;-1.786;2022-10-16T13:19:06;100433.09;;;18.74;50.76
73073;BME280;61260;51.090;-1.786;2022-10-16T13:21:45;100434.58;;;18.59;50.78